Mia Rama — 9HA4221 — position and weather

sailwx.info

Track history (hours):
 
Tides and Currents Weather Stations Pressure Air Temp Water Temp Dewpoint Dewpoint Depression Visibility Wind Speed Wind Dir Waves Ship Positions

Mia Rama

Last reported at 2018-Apr-17 18:49 UTC. Time now 2018-Apr-26 19:17 UTC.
Position N 38°04' E 022°43'.
Warning: this ship's position is 9 days out of date.

Length 54 m; draft 3.3 m.

Type: Pleasure craft. MMSI: 249373000.

Date/timePositionNaut miles runAvg speedWind from/ knotsBaromVisibWave heightAir tempDewpointWater temp
2018-Apr-17 18:49N 38°04' E 022°43'414.0
2018-Apr-17 18:30N 38°01' E 022°48'714.0
2018-Apr-17 18:00N 37°58' E 022°55'2 3.4
2018-Apr-17 17:30N 37°58' E 022°57'0 0.6
2018-Apr-17 17:00N 37°58' E 022°58'3 6.4
2018-Apr-17 16:29N 37°55' E 023°00'2 3.2
2018-Apr-17 16:00N 37°54' E 023°02'2 3.1
2018-Apr-17 15:30N 37°54' E 023°04'510.5
2018-Apr-17 15:00N 37°53' E 023°10'510.7
2018-Apr-17 14:31N 37°52' E 023°17'510.7
2018-Apr-17 14:00N 37°51' E 023°23'510.6
2018-Apr-17 13:30N 37°51' E 023°30'510.6
2018-Apr-17 13:00N 37°53' E 023°36'5 9.0
2018-Apr-17 12:30N 37°56' E 023°41'0 0.6
2018-Apr-17 11:58N 37°56' E 023°41'0 0.0
2018-Apr-17 11:28N 37°56' E 023°41'0 0.0
2018-Apr-17 10:58N 37°56' E 023°41'0 0.0
2018-Apr-17 10:28N 37°56' E 023°41'0 0.0
2018-Apr-17 09:58N 37°56' E 023°41'0 0.0
2018-Apr-17 09:28N 37°56' E 023°41'0 0.0
2018-Apr-17 08:58N 37°56' E 023°41'0 0.0
2018-Apr-17 08:28N 37°56' E 023°41'0 0.0
2018-Apr-17 07:58N 37°56' E 023°41'0 0.0
2018-Apr-17 07:28N 37°56' E 023°41'0 0.0
2018-Apr-17 06:58N 37°56' E 023°41'0 0.0
2018-Apr-17 06:25N 37°56' E 023°41'0 0.0
2018-Apr-17 05:58N 37°56' E 023°41'0 0.0
2018-Apr-17 05:28N 37°56' E 023°41'0 0.0
2018-Apr-17 04:58N 37°56' E 023°41'0 0.0
2018-Apr-17 04:28N 37°56' E 023°41'0 0.0
2018-Apr-17 03:58N 37°56' E 023°41'0 0.0
2018-Apr-17 03:28N 37°56' E 023°41'0 0.0
2018-Apr-17 02:58N 37°56' E 023°41'0 0.0
2018-Apr-17 02:28N 37°56' E 023°41'0 0.0
2018-Apr-17 01:58N 37°56' E 023°41'0 0.0
2018-Apr-17 01:28N 37°56' E 023°41'0 0.0
2018-Apr-17 00:58N 37°56' E 023°41'0 0.0
2018-Apr-17 00:28N 37°56' E 023°41'0 0.0
2018-Apr-16 23:58N 37°56' E 023°41'0 0.0
2018-Apr-16 23:28N 37°56' E 023°41'0 0.0
2018-Apr-16 22:58N 37°56' E 023°41'0 0.0
2018-Apr-16 22:28N 37°56' E 023°41'0 0.0
2018-Apr-16 21:58N 37°56' E 023°41'0 0.0
2018-Apr-16 21:28N 37°56' E 023°41'0 0.0
2018-Apr-16 20:58N 37°56' E 023°41'0 0.0
2018-Apr-16 20:28N 37°56' E 023°41'0 0.0
2018-Apr-16 19:58N 37°56' E 023°41'0 0.0
2018-Apr-16 19:28N 37°56' E 023°41'0 0.0
2018-Apr-16 18:58N 37°56' E 023°41'0 0.0
2018-Apr-16 18:28N 37°56' E 023°41'0 0.0
2018-Apr-16 17:58N 37°56' E 023°41'0 0.0
2018-Apr-16 17:28N 37°56' E 023°41'0 0.0
2018-Apr-16 16:58N 37°56' E 023°41'0 0.0
2018-Apr-16 16:28N 37°56' E 023°41'0 0.0
2018-Apr-16 15:55N 37°56' E 023°41'0 0.0
2018-Apr-16 15:28N 37°56' E 023°41'0 0.0
2018-Apr-16 14:55N 37°56' E 023°41'0 0.0
2018-Apr-16 14:25N 37°56' E 023°41'0 0.0
2018-Apr-16 13:58N 37°56' E 023°41'0 0.0
2018-Apr-16 13:28N 37°56' E 023°41'0 0.0
2018-Apr-16 12:58N 37°56' E 023°41'0 0.0
2018-Apr-16 12:22N 37°56' E 023°41'0 0.0
2018-Apr-16 11:58N 37°56' E 023°41'0 0.0
2018-Apr-16 11:28N 37°56' E 023°41'0 0.0
2018-Apr-16 10:58N 37°56' E 023°41'0 0.0
2018-Apr-16 10:28N 37°56' E 023°41'0 0.0
2018-Apr-16 09:58N 37°56' E 023°41'0 0.0
2018-Apr-16 09:28N 37°56' E 023°41'0 0.0
2018-Apr-16 08:55N 37°56' E 023°41'0 0.0
2018-Apr-16 08:28N 37°56' E 023°41'0 0.0
2018-Apr-16 07:58N 37°56' E 023°41'0 0.0
2018-Apr-16 07:28N 37°56' E 023°41'0 0.0
2018-Apr-16 06:58N 37°56' E 023°41'0 0.0
2018-Apr-16 06:28N 37°56' E 023°41'0 0.0
2018-Apr-16 05:58N 37°56' E 023°41'0 0.0
2018-Apr-16 05:28N 37°56' E 023°41'0 0.0
2018-Apr-16 04:58N 37°56' E 023°41'0 0.0
2018-Apr-16 04:16N 37°56' E 023°41'0 0.0
2018-Apr-16 03:55N 37°56' E 023°41'0 0.0
2018-Apr-16 03:28N 37°56' E 023°41'0 0.0
2018-Apr-16 02:58N 37°56' E 023°41'0 0.0
2018-Apr-16 02:28N 37°56' E 023°41'0 0.0
2018-Apr-16 01:55N 37°56' E 023°41'0 0.0
2018-Apr-16 01:25N 37°56' E 023°41'0 0.0
2018-Apr-16 00:58N 37°56' E 023°41'0 0.0
2018-Apr-16 00:28N 37°56' E 023°41'0 0.0
2018-Apr-15 23:58N 37°56' E 023°41'0 0.0
2018-Apr-15 23:25N 37°56' E 023°41'0 0.0
2018-Apr-15 22:55N 37°56' E 023°41'0 0.0
2018-Apr-15 22:28N 37°56' E 023°41'0 0.0
2018-Apr-15 21:58N 37°56' E 023°41'0 0.0
2018-Apr-15 21:28N 37°56' E 023°41'0 0.0
2018-Apr-15 20:55N 37°56' E 023°41'0 0.0
2018-Apr-15 20:22N 37°56' E 023°41'0 0.0
2018-Apr-15 19:55N 37°56' E 023°41'0 0.0
2018-Apr-15 19:25N 37°56' E 023°41'0 0.0
2018-Apr-15 18:58N 37°56' E 023°41'0 0.0
2018-Apr-15 18:19N 37°56' E 023°41'0 0.0
2018-Apr-15 17:55N 37°56' E 023°41'0 0.0
2018-Apr-15 17:28N 37°56' E 023°41'0 0.0
2018-Apr-15 16:52N 37°56' E 023°41'0 0.0
2018-Apr-15 16:28N 37°56' E 023°41'0 0.0
2018-Apr-15 15:58N 37°56' E 023°41'0 0.0
2018-Apr-15 15:25N 37°56' E 023°41'0 0.0
2018-Apr-15 14:52N 37°56' E 023°41'0 0.0
2018-Apr-15 14:28N 37°56' E 023°41'0 0.0
2018-Apr-15 13:55N 37°56' E 023°41'0 0.0
2018-Apr-15 13:28N 37°56' E 023°41'0 0.0
2018-Apr-15 12:58N 37°56' E 023°41'0 0.0
2018-Apr-15 12:16N 37°56' E 023°41'0 0.0
2018-Apr-15 11:55N 37°56' E 023°41'0 0.0
2018-Apr-15 08:49N 37°56' E 023°41'0 0.0
2018-Apr-15 08:07N 37°56' E 023°41'0 0.0
2018-Apr-15 07:58N 37°56' E 023°41'0 0.0
2018-Apr-15 07:19N 37°56' E 023°41'0 0.0
2018-Apr-15 06:58N 37°56' E 023°41'0 0.0
2018-Apr-15 06:28N 37°56' E 023°41'0 0.0
2018-Apr-15 05:52N 37°56' E 023°41'0 0.0
2018-Apr-15 05:25N 37°56' E 023°41'0 0.0
2018-Apr-15 04:58N 37°56' E 023°41'0 0.0
2018-Apr-15 04:28N 37°56' E 023°41'0 0.0
2018-Apr-15 03:55N 37°56' E 023°41'0 0.0
2018-Apr-15 03:25N 37°56' E 023°41'0 0.0
2018-Apr-15 02:55N 37°56' E 023°41'0 0.0
2018-Apr-15 02:28N 37°56' E 023°41'0 0.0
2018-Apr-15 01:58N 37°56' E 023°41'0 0.0
2018-Apr-15 01:28N 37°56' E 023°41'0 0.0
2018-Apr-15 00:55N 37°56' E 023°41'0 0.0
2018-Apr-15 00:28N 37°56' E 023°41'0 0.0
2018-Apr-14 23:58N 37°56' E 023°41'0 0.0
2018-Apr-14 23:28N 37°56' E 023°41'0 0.0
2018-Apr-14 22:58N 37°56' E 023°41'0 0.0
2018-Apr-14 22:28N 37°56' E 023°41'0 0.0
2018-Apr-14 21:58N 37°56' E 023°41'0 0.0
2018-Apr-14 21:28N 37°56' E 023°41'0 0.0
2018-Apr-14 20:55N 37°56' E 023°41'0 0.0
2018-Apr-14 20:28N 37°56' E 023°41'0 0.0
2018-Apr-14 19:58N 37°56' E 023°41'0 0.0
2018-Apr-14 19:28N 37°56' E 023°41'0 0.0
2018-Apr-14 18:58N 37°56' E 023°41'0 0.0
2018-Apr-14 18:28N 37°56' E 023°41'0 0.0
2018-Apr-14 17:58N 37°56' E 023°41'0 0.0
2018-Apr-14 17:28N 37°56' E 023°41'0 0.0
2018-Apr-14 16:55N 37°56' E 023°41'0 0.0
2018-Apr-14 16:25N 37°56' E 023°41'0 0.0
2018-Apr-14 15:58N 37°56' E 023°41'0 0.0
2018-Apr-14 15:25N 37°56' E 023°41'0 0.0
2018-Apr-14 14:58N 37°56' E 023°41'0 0.0
2018-Apr-14 14:28N 37°56' E 023°41'0 0.0
2018-Apr-14 13:55N 37°56' E 023°41'0 0.0
2018-Apr-14 13:28N 37°56' E 023°41'0 0.0
2018-Apr-14 12:56N 37°56' E 023°41'0 1.1
2018-Apr-14 12:31N 37°56' E 023°41'0 0.8
2018-Apr-14 11:56N 37°56' E 023°40'0 0.0
2018-Apr-14 11:29N 37°56' E 023°40'0 0.0
2018-Apr-14 10:59N 37°56' E 023°40'0 0.0
2018-Apr-14 10:29N 37°56' E 023°40'0 0.0
2018-Apr-14 09:59N 37°56' E 023°40'0 0.0
2018-Apr-14 09:26N 37°56' E 023°40'0 0.0
2018-Apr-14 08:56N 37°56' E 023°40'0 0.0
2018-Apr-14 08:26N 37°56' E 023°40'0 0.0
2018-Apr-14 07:59N 37°56' E 023°40'0 0.0
2018-Apr-14 07:23N 37°56' E 023°40'0 0.0
2018-Apr-14 06:59N 37°56' E 023°40'0 0.0
2018-Apr-14 06:29N 37°56' E 023°40'0 0.0
2018-Apr-14 05:59N 37°56' E 023°40'0 0.0
2018-Apr-14 05:29N 37°56' E 023°40'0 0.0
2018-Apr-14 04:56N 37°56' E 023°40'0 0.0
2018-Apr-14 04:29N 37°56' E 023°40'0 0.0
2018-Apr-14 03:59N 37°56' E 023°40'0 0.0
2018-Apr-14 03:29N 37°56' E 023°40'0 0.0
2018-Apr-14 02:56N 37°56' E 023°40'0 0.0
2018-Apr-14 02:29N 37°56' E 023°40'0 0.0
2018-Apr-14 01:59N 37°56' E 023°40'0 0.0
2018-Apr-14 01:23N 37°56' E 023°40'0 0.0
2018-Apr-14 00:59N 37°56' E 023°40'0 0.0
2018-Apr-14 00:29N 37°56' E 023°40'0 0.0
2018-Apr-13 23:59N 37°56' E 023°40'0 0.0
2018-Apr-13 23:26N 37°56' E 023°40'0 0.0
2018-Apr-13 22:59N 37°56' E 023°40'0 0.0
2018-Apr-13 22:29N 37°56' E 023°40'0 0.0
2018-Apr-13 21:59N 37°56' E 023°40'0 0.0
2018-Apr-13 21:29N 37°56' E 023°40'0 0.0
2018-Apr-13 20:59N 37°56' E 023°40'0 0.0
2018-Apr-13 20:29N 37°56' E 023°40'0 0.0
2018-Apr-13 19:59N 37°56' E 023°40'0 0.0
2018-Apr-13 19:29N 37°56' E 023°40'0 0.0
2018-Apr-13 18:53N 37°56' E 023°40'0 0.0
2018-Apr-13 18:29N 37°56' E 023°40'0 0.0
2018-Apr-13 17:59N 37°56' E 023°40'0 0.0
2018-Apr-13 17:29N 37°56' E 023°40'0 0.0
2018-Apr-13 16:59N 37°56' E 023°40'0 0.0
2018-Apr-13 16:26N 37°56' E 023°40'0 0.0
2018-Apr-13 15:59N 37°56' E 023°40'0 0.0
2018-Apr-13 15:29N 37°56' E 023°40'0 0.0
2018-Apr-13 14:59N 37°56' E 023°40'0 0.0
2018-Apr-13 14:29N 37°56' E 023°40'0 0.0
2018-Apr-13 13:59N 37°56' E 023°40'0 0.0
2018-Apr-13 13:29N 37°56' E 023°40'0 0.0
2018-Apr-13 12:59N 37°56' E 023°40'0 0.0
2018-Apr-13 12:29N 37°56' E 023°40'0 0.0
2018-Apr-13 11:56N 37°56' E 023°40'0 0.0
2018-Apr-13 11:26N 37°56' E 023°40'0 0.0
2018-Apr-13 10:59N 37°56' E 023°40'0 0.0
2018-Apr-13 10:29N 37°56' E 023°40'0 0.0
2018-Apr-13 09:59N 37°56' E 023°40'0 0.0
2018-Apr-13 09:29N 37°56' E 023°40'0 0.0
2018-Apr-13 08:59N 37°56' E 023°40'0 0.0
2018-Apr-13 08:29N 37°56' E 023°40'0 0.0
2018-Apr-13 07:56N 37°56' E 023°40'0 0.0
2018-Apr-13 07:29N 37°56' E 023°40'0 0.0
2018-Apr-13 06:59N 37°56' E 023°40'0 0.0
2018-Apr-13 06:29N 37°56' E 023°40'0 0.0
2018-Apr-13 05:59N 37°56' E 023°40'0 0.0
2018-Apr-13 05:29N 37°56' E 023°40'0 0.0
2018-Apr-13 04:56N 37°56' E 023°40'0 0.0
2018-Apr-13 04:29N 37°56' E 023°40'0 0.0
2018-Apr-13 03:59N 37°56' E 023°40'0 0.0
2018-Apr-13 03:26N 37°56' E 023°40'0 0.0
2018-Apr-13 02:59N 37°56' E 023°40'0 0.0
2018-Apr-13 02:29N 37°56' E 023°40'0 0.0
2018-Apr-13 01:59N 37°56' E 023°40'0 0.0
2018-Apr-13 01:29N 37°56' E 023°40'0 0.0
2018-Apr-13 00:59N 37°56' E 023°40'0 0.0
2018-Apr-13 00:29N 37°56' E 023°40'0 0.0
2018-Apr-12 23:59N 37°56' E 023°40'0 0.0
2018-Apr-12 23:29N 37°56' E 023°40'0 0.0
2018-Apr-12 22:59N 37°56' E 023°40'0 0.0
2018-Apr-12 22:26N 37°56' E 023°40'0 0.0
2018-Apr-12 21:59N 37°56' E 023°40'0 0.0
2018-Apr-12 21:29N 37°56' E 023°40'0 0.0
2018-Apr-12 20:59N 37°56' E 023°40'0 0.0
2018-Apr-12 20:29N 37°56' E 023°40'0 0.0
2018-Apr-12 19:59N 37°56' E 023°40'0 0.0
2018-Apr-12 19:29N 37°56' E 023°40'0 0.0
2018-Apr-12 18:59N 37°56' E 023°40'0 0.0
2018-Apr-12 18:29N 37°56' E 023°40'0 0.0
2018-Apr-12 17:59N 37°56' E 023°40'0 0.0
2018-Apr-12 17:29N 37°56' E 023°40'0 0.0
2018-Apr-12 16:59N 37°56' E 023°40'0 0.0
2018-Apr-12 16:29N 37°56' E 023°40'0 0.0
2018-Apr-12 15:59N 37°56' E 023°40'0 0.0
2018-Apr-12 15:26N 37°56' E 023°40'0 0.0
2018-Apr-12 14:59N 37°56' E 023°40'0 0.0
2018-Apr-12 14:29N 37°56' E 023°40'0 0.0
2018-Apr-12 13:59N 37°56' E 023°40'0 0.0
2018-Apr-12 13:29N 37°56' E 023°40'0 0.0
2018-Apr-12 12:59N 37°56' E 023°40'0 0.0
2018-Apr-12 12:26N 37°56' E 023°40'0 0.0
2018-Apr-12 11:59N 37°56' E 023°40'0 0.0
2018-Apr-12 11:29N 37°56' E 023°40'0 0.0
2018-Apr-12 10:56N 37°56' E 023°40'0 0.0
2018-Apr-12 10:29N 37°56' E 023°40'0 0.0
2018-Apr-12 09:56N 37°56' E 023°40'0 0.0
2018-Apr-12 09:29N 37°56' E 023°40'0 0.0
2018-Apr-12 08:59N 37°56' E 023°40'0 0.0
2018-Apr-12 08:29N 37°56' E 023°40'0 0.0
2018-Apr-12 07:59N 37°56' E 023°40'0 0.0
2018-Apr-12 07:20N 37°56' E 023°40'0 0.0
2018-Apr-12 06:56N 37°56' E 023°40'0 0.0
2018-Apr-12 06:29N 37°56' E 023°40'0 0.0
2018-Apr-12 05:59N 37°56' E 023°40'0 0.0
2018-Apr-12 05:29N 37°56' E 023°40'0 0.0
2018-Apr-12 04:59N 37°56' E 023°40'0 0.0
2018-Apr-12 04:26N 37°56' E 023°40'0 0.0
2018-Apr-12 03:59N 37°56' E 023°40'0 0.0
2018-Apr-12 03:29N 37°56' E 023°40'0 0.0
2018-Apr-12 02:59N 37°56' E 023°40'0 0.0
2018-Apr-12 02:26N 37°56' E 023°40'0 0.0
2018-Apr-12 01:56N 37°56' E 023°40'0 0.0
2018-Apr-12 01:29N 37°56' E 023°40'0 0.0
2018-Apr-12 00:59N 37°56' E 023°40'0 0.0
2018-Apr-12 00:29N 37°56' E 023°40'0 0.0
2018-Apr-11 23:56N 37°56' E 023°40'0 0.0
2018-Apr-11 23:29N 37°56' E 023°40'0 0.0
2018-Apr-11 22:53N 37°56' E 023°40'0 0.0
2018-Apr-11 22:26N 37°56' E 023°40'0 0.0
2018-Apr-11 21:50N 37°56' E 023°40'0 0.0
2018-Apr-11 21:26N 37°56' E 023°40'0 0.0
2018-Apr-11 20:59N 37°56' E 023°40'0 0.0
2018-Apr-11 20:29N 37°56' E 023°40'0 0.0
2018-Apr-11 19:59N 37°56' E 023°40'0 0.0
2018-Apr-11 19:29N 37°56' E 023°40'0 0.0
2018-Apr-11 18:59N 37°56' E 023°40'0 0.0
2018-Apr-11 18:29N 37°56' E 023°40'0 0.0
2018-Apr-11 17:59N 37°56' E 023°40'0 0.0
2018-Apr-11 17:26N 37°56' E 023°40'0 0.0
2018-Apr-11 16:59N 37°56' E 023°40'0 0.0
2018-Apr-11 16:29N 37°56' E 023°40'0 0.0
2018-Apr-11 15:59N 37°56' E 023°40'0 0.0
2018-Apr-11 15:29N 37°56' E 023°40'0 0.0
2018-Apr-11 14:56N 37°56' E 023°40'0 0.0
2018-Apr-11 14:29N 37°56' E 023°40'0 0.0
2018-Apr-11 13:59N 37°56' E 023°40'0 0.0
2018-Apr-11 13:29N 37°56' E 023°40'0 0.0
2018-Apr-11 12:59N 37°56' E 023°40'0 0.0
2018-Apr-11 12:29N 37°56' E 023°40'0 0.0
2018-Apr-11 11:59N 37°56' E 023°40'0 0.0
2018-Apr-11 11:29N 37°56' E 023°40'0 0.0
2018-Apr-11 10:59N 37°56' E 023°40'0 0.0
2018-Apr-11 10:29N 37°56' E 023°40'0 0.0
2018-Apr-11 09:59N 37°56' E 023°40'0 0.0
2018-Apr-11 09:29N 37°56' E 023°40'0 0.0
2018-Apr-11 08:59N 37°56' E 023°40'0 0.0
2018-Apr-11 08:29N 37°56' E 023°40'0 0.0
2018-Apr-11 07:59N 37°56' E 023°40'0 0.0
2018-Apr-11 07:29N 37°56' E 023°40'0 0.0
2018-Apr-11 06:59N 37°56' E 023°40'0 0.0
2018-Apr-11 06:26N 37°56' E 023°40'0 0.0
2018-Apr-11 05:56N 37°56' E 023°40'0 0.0
2018-Apr-11 05:29N 37°56' E 023°40'0 0.0
2018-Apr-11 04:59N 37°56' E 023°40'0 0.0
2018-Apr-11 04:29N 37°56' E 023°40'0 0.0
2018-Apr-11 03:59N 37°56' E 023°40'0 0.0
2018-Apr-11 03:29N 37°56' E 023°40'0 0.0
2018-Apr-11 02:59N 37°56' E 023°40'0 0.0
2018-Apr-11 02:29N 37°56' E 023°40'0 0.0
2018-Apr-11 01:59N 37°56' E 023°40'0 0.0
2018-Apr-11 01:26N 37°56' E 023°40'0 0.0
2018-Apr-11 00:59N 37°56' E 023°40'0 0.0
2018-Apr-11 00:29N 37°56' E 023°40'0 0.0
2018-Apr-10 23:59N 37°56' E 023°40'0 0.0
2018-Apr-10 23:29N 37°56' E 023°40'0 0.0
2018-Apr-10 22:59N 37°56' E 023°40'0 0.0
2018-Apr-10 22:29N 37°56' E 023°40'0 0.0
2018-Apr-10 21:59N 37°56' E 023°40'0 0.0
2018-Apr-10 21:26N 37°56' E 023°40'0 0.0
2018-Apr-10 20:59N 37°56' E 023°40'0 0.0
2018-Apr-10 20:23N 37°56' E 023°40'0 0.0
2018-Apr-10 19:59N 37°56' E 023°40'0 0.0
2018-Apr-10 19:29N 37°56' E 023°40'0 0.0
2018-Apr-10 18:59N 37°56' E 023°40'0 0.0
2018-Apr-10 18:29N 37°56' E 023°40'0 0.0
2018-Apr-10 17:59N 37°56' E 023°40'0 0.0
2018-Apr-10 17:29N 37°56' E 023°40'0 0.0
2018-Apr-10 16:59N 37°56' E 023°40'0 0.0
2018-Apr-10 16:29N 37°56' E 023°40'0 0.0
2018-Apr-10 15:59N 37°56' E 023°40'0 0.0
2018-Apr-10 15:29N 37°56' E 023°40'0 0.0
2018-Apr-10 14:53N 37°56' E 023°40'0 0.0
2018-Apr-10 14:29N 37°56' E 023°40'0 0.0
2018-Apr-10 13:59N 37°56' E 023°40'0 0.0
2018-Apr-10 13:29N 37°56' E 023°40'0 0.0
2018-Apr-10 12:59N 37°56' E 023°40'0 0.0
2018-Apr-10 12:29N 37°56' E 023°40'0 0.0
2018-Apr-10 11:59N 37°56' E 023°40'0 0.0
2018-Apr-10 11:29N 37°56' E 023°40'0 0.0
2018-Apr-10 10:59N 37°56' E 023°40'0 0.0
2018-Apr-10 10:29N 37°56' E 023°40'0 0.0
2018-Apr-10 09:59N 37°56' E 023°40'0 0.0
2018-Apr-10 09:29N 37°56' E 023°40'0 0.0
2018-Apr-10 08:59N 37°56' E 023°40'0 0.0
2018-Apr-10 08:26N 37°56' E 023°40'0 0.0
2018-Apr-10 07:59N 37°56' E 023°40'0 0.0
2018-Apr-10 07:29N 37°56' E 023°40'0 0.0
2018-Apr-10 06:59N 37°56' E 023°40'0 0.0
2018-Apr-10 06:29N 37°56' E 023°40'0 0.0
2018-Apr-10 05:59N 37°56' E 023°40'0 0.0
2018-Apr-10 05:29N 37°56' E 023°40'0 0.0
2018-Apr-10 04:59N 37°56' E 023°40'0 0.0
2018-Apr-10 04:29N 37°56' E 023°40'0 0.0
2018-Apr-10 03:59N 37°56' E 023°40'0 0.0
2018-Apr-10 03:26N 37°56' E 023°40'0 0.0
2018-Apr-10 02:59N 37°56' E 023°40'0 0.0
2018-Apr-10 02:29N 37°56' E 023°40'0 0.0
2018-Apr-10 01:59N 37°56' E 023°40'0 0.0
2018-Apr-10 01:29N 37°56' E 023°40'0 0.0
2018-Apr-10 00:59N 37°56' E 023°40'0 0.0
2018-Apr-10 00:29N 37°56' E 023°40'0 0.0
2018-Apr-09 23:59N 37°56' E 023°40'0 0.0
2018-Apr-09 23:29N 37°56' E 023°40'0 0.0
2018-Apr-09 22:59N 37°56' E 023°40'0 0.0
2018-Apr-09 22:29N 37°56' E 023°40'0 0.0
2018-Apr-09 21:56N 37°56' E 023°40'0 0.0
2018-Apr-09 21:29N 37°56' E 023°40'0 0.0
2018-Apr-09 20:59N 37°56' E 023°40'0 0.0
2018-Apr-09 20:29N 37°56' E 023°40'0 0.0
2018-Apr-09 19:59N 37°56' E 023°40'0 0.0
2018-Apr-09 19:29N 37°56' E 023°40'0 0.0
2018-Apr-09 18:59N 37°56' E 023°40'0 0.0
2018-Apr-09 18:29N 37°56' E 023°40'0 0.0
2018-Apr-09 17:59N 37°56' E 023°40'0 0.0
2018-Apr-09 17:29N 37°56' E 023°40'0 0.0
2018-Apr-09 16:56N 37°56' E 023°40'0 0.0
2018-Apr-09 16:29N 37°56' E 023°40'0 0.0
2018-Apr-09 15:59N 37°56' E 023°40'0 0.0
2018-Apr-09 15:29N 37°56' E 023°40'0 0.0
2018-Apr-09 14:59N 37°56' E 023°40'0 0.0
2018-Apr-09 14:29N 37°56' E 023°40'0 0.0
2018-Apr-09 13:59N 37°56' E 023°40'0 0.0
2018-Apr-09 13:29N 37°56' E 023°40'0 0.0
2018-Apr-09 12:59N 37°56' E 023°40'0 0.0
2018-Apr-09 12:29N 37°56' E 023°40'0 0.0
2018-Apr-09 11:59N 37°56' E 023°40'0 0.0
2018-Apr-09 11:29N 37°56' E 023°40'0 0.0
2018-Apr-09 10:59N 37°56' E 023°40'0 0.0
2018-Apr-09 10:29N 37°56' E 023°40'0 0.0
2018-Apr-09 09:59N 37°56' E 023°40'0 0.0
2018-Apr-09 09:29N 37°56' E 023°40'0 0.0
2018-Apr-09 08:59N 37°56' E 023°40'0 0.0
2018-Apr-09 08:29N 37°56' E 023°40'0 0.0
2018-Apr-09 07:59N 37°56' E 023°40'0 0.0
2018-Apr-09 07:29N 37°56' E 023°40'0 0.0
2018-Apr-09 06:59N 37°56' E 023°40'0 0.0
2018-Apr-09 06:26N 37°56' E 023°40'0 0.0
2018-Apr-09 05:59N 37°56' E 023°40'0 0.0
2018-Apr-09 05:29N 37°56' E 023°40'0 0.0
2018-Apr-09 04:59N 37°56' E 023°40'0 0.0
2018-Apr-09 04:29N 37°56' E 023°40'0 0.0
2018-Apr-09 03:59N 37°56' E 023°40'0 0.0
2018-Apr-09 03:26N 37°56' E 023°40'0 0.0
2018-Apr-09 02:59N 37°56' E 023°40'0 0.0
2018-Apr-09 02:29N 37°56' E 023°40'0 0.0
2018-Apr-09 01:59N 37°56' E 023°40'0 0.0
2018-Apr-09 01:29N 37°56' E 023°40'0 0.0
2018-Apr-09 00:59N 37°56' E 023°40'0 0.0
2018-Apr-09 00:29N 37°56' E 023°40'0 0.0
2018-Apr-08 23:59N 37°56' E 023°40'0 0.0
2018-Apr-08 23:29N 37°56' E 023°40'0 0.0
2018-Apr-08 22:56N 37°56' E 023°40'0 0.0
2018-Apr-08 22:29N 37°56' E 023°40'0 0.0
2018-Apr-08 21:59N 37°56' E 023°40'0 0.0
2018-Apr-08 21:29N 37°56' E 023°40'0 0.0
2018-Apr-08 20:59N 37°56' E 023°40'0 0.0
2018-Apr-08 20:29N 37°56' E 023°40'0 0.0
2018-Apr-08 19:59N 37°56' E 023°40'0 0.0
2018-Apr-08 19:29N 37°56' E 023°40'0 0.0
2018-Apr-08 18:59N 37°56' E 023°40'0 0.0
2018-Apr-08 18:29N 37°56' E 023°40'0 0.0
2018-Apr-08 17:59N 37°56' E 023°40'0 0.0
2018-Apr-08 17:29N 37°56' E 023°40'0 0.0
2018-Apr-08 16:59N 37°56' E 023°40'0 0.0
2018-Apr-08 16:29N 37°56' E 023°40'0 0.0
2018-Apr-08 15:59N 37°56' E 023°40'0 0.0
2018-Apr-08 15:29N 37°56' E 023°40'0 0.0
2018-Apr-08 14:59N 37°56' E 023°40'0 0.0
2018-Apr-08 14:29N 37°56' E 023°40'0 0.0
2018-Apr-08 13:59N 37°56' E 023°40'0 0.0
2018-Apr-08 13:29N 37°56' E 023°40'0 0.0
2018-Apr-08 12:59N 37°56' E 023°40'0 0.0
2018-Apr-08 12:29N 37°56' E 023°40'0 0.0
2018-Apr-08 11:59N 37°56' E 023°40'0 0.0
2018-Apr-08 11:29N 37°56' E 023°40'0 0.0
2018-Apr-08 10:59N 37°56' E 023°40'0 0.0
2018-Apr-08 10:29N 37°56' E 023°40'0 0.0
2018-Apr-08 09:59N 37°56' E 023°40'0 0.0
2018-Apr-08 09:29N 37°56' E 023°40'0 0.0
2018-Apr-08 08:59N 37°56' E 023°40'0 0.0
2018-Apr-08 08:29N 37°56' E 023°40'0 0.0
2018-Apr-08 07:59N 37°56' E 023°40'0 0.0
2018-Apr-08 07:29N 37°56' E 023°40'0 0.0
2018-Apr-08 06:59N 37°56' E 023°40'0 0.0
2018-Apr-08 06:29N 37°56' E 023°40'0 0.0
2018-Apr-08 05:59N 37°56' E 023°40'0 0.0
2018-Apr-08 05:29N 37°56' E 023°40'0 0.0
2018-Apr-08 04:59N 37°56' E 023°40'0 0.0
2018-Apr-08 04:29N 37°56' E 023°40'0 0.0
2018-Apr-08 03:59N 37°56' E 023°40'0 0.0
2018-Apr-08 03:29N 37°56' E 023°40'0 0.0
2018-Apr-08 02:59N 37°56' E 023°40'0 0.0
2018-Apr-08 02:29N 37°56' E 023°40'0 0.0
2018-Apr-08 01:59N 37°56' E 023°40'0 0.0
2018-Apr-08 01:26N 37°56' E 023°40'0 0.0
2018-Apr-08 00:59N 37°56' E 023°40'0 0.0
2018-Apr-08 00:29N 37°56' E 023°40'0 0.0
2018-Apr-07 23:59N 37°56' E 023°40'0 0.0
2018-Apr-07 23:29N 37°56' E 023°40'0 0.0
2018-Apr-07 22:59N 37°56' E 023°40'0 0.0
2018-Apr-07 22:29N 37°56' E 023°40'0 0.0
2018-Apr-07 21:59N 37°56' E 023°40'0 0.0
2018-Apr-07 21:29N 37°56' E 023°40'0 0.0
2018-Apr-07 20:59N 37°56' E 023°40'0 0.0
2018-Apr-07 20:29N 37°56' E 023°40'0 0.0
2018-Apr-07 19:59N 37°56' E 023°40'0 0.0
2018-Apr-07 19:29N 37°56' E 023°40'0 0.0
2018-Apr-07 18:56N 37°56' E 023°40'  
Track history (hours):
 
Tides and Currents Weather Stations Pressure Air Temp Water Temp Dewpoint Dewpoint Depression Visibility Wind Speed Wind Dir Waves Ship Positions

Mia Rama

Last reported at 2018-Apr-17 18:49 UTC. Time now 2018-Apr-26 19:17 UTC.
Position N 38°04' E 022°43'.
Warning: this ship's position is 9 days out of date.

Length 54 m; draft 3.3 m.

Type: Pleasure craft. MMSI: 249373000.

Date/timePositionNaut miles runAvg speedWind from/ knotsBaromVisibWave heightAir tempDewpointWater temp
2018-Apr-17 18:49N 38°04' E 022°43'414.0
2018-Apr-17 18:30N 38°01' E 022°48'714.0
2018-Apr-17 18:00N 37°58' E 022°55'2 3.4
2018-Apr-17 17:30N 37°58' E 022°57'0 0.6
2018-Apr-17 17:00N 37°58' E 022°58'3 6.4
2018-Apr-17 16:29N 37°55' E 023°00'2 3.2
2018-Apr-17 16:00N 37°54' E 023°02'2 3.1
2018-Apr-17 15:30N 37°54' E 023°04'510.5
2018-Apr-17 15:00N 37°53' E 023°10'510.7
2018-Apr-17 14:31N 37°52' E 023°17'510.7
2018-Apr-17 14:00N 37°51' E 023°23'510.6
2018-Apr-17 13:30N 37°51' E 023°30'510.6
2018-Apr-17 13:00N 37°53' E 023°36'5 9.0
2018-Apr-17 12:30N 37°56' E 023°41'0 0.6
2018-Apr-17 11:58N 37°56' E 023°41'0 0.0
2018-Apr-17 11:28N 37°56' E 023°41'0 0.0
2018-Apr-17 10:58N 37°56' E 023°41'0 0.0
2018-Apr-17 10:28N 37°56' E 023°41'0 0.0
2018-Apr-17 09:58N 37°56' E 023°41'0 0.0
2018-Apr-17 09:28N 37°56' E 023°41'0 0.0
2018-Apr-17 08:58N 37°56' E 023°41'0 0.0
2018-Apr-17 08:28N 37°56' E 023°41'0 0.0
2018-Apr-17 07:58N 37°56' E 023°41'0 0.0
2018-Apr-17 07:28N 37°56' E 023°41'0 0.0
2018-Apr-17 06:58N 37°56' E 023°41'0 0.0
2018-Apr-17 06:25N 37°56' E 023°41'0 0.0
2018-Apr-17 05:58N 37°56' E 023°41'0 0.0
2018-Apr-17 05:28N 37°56' E 023°41'0 0.0
2018-Apr-17 04:58N 37°56' E 023°41'0 0.0
2018-Apr-17 04:28N 37°56' E 023°41'0 0.0
2018-Apr-17 03:58N 37°56' E 023°41'0 0.0
2018-Apr-17 03:28N 37°56' E 023°41'0 0.0
2018-Apr-17 02:58N 37°56' E 023°41'0 0.0
2018-Apr-17 02:28N 37°56' E 023°41'0 0.0
2018-Apr-17 01:58N 37°56' E 023°41'0 0.0
2018-Apr-17 01:28N 37°56' E 023°41'0 0.0
2018-Apr-17 00:58N 37°56' E 023°41'0 0.0
2018-Apr-17 00:28N 37°56' E 023°41'0 0.0
2018-Apr-16 23:58N 37°56' E 023°41'0 0.0
2018-Apr-16 23:28N 37°56' E 023°41'0 0.0
2018-Apr-16 22:58N 37°56' E 023°41'0 0.0
2018-Apr-16 22:28N 37°56' E 023°41'0 0.0
2018-Apr-16 21:58N 37°56' E 023°41'0 0.0
2018-Apr-16 21:28N 37°56' E 023°41'0 0.0
2018-Apr-16 20:58N 37°56' E 023°41'0 0.0
2018-Apr-16 20:28N 37°56' E 023°41'0 0.0
2018-Apr-16 19:58N 37°56' E 023°41'0 0.0
2018-Apr-16 19:28N 37°56' E 023°41'0 0.0
2018-Apr-16 18:58N 37°56' E 023°41'0 0.0
2018-Apr-16 18:28N 37°56' E 023°41'0 0.0
2018-Apr-16 17:58N 37°56' E 023°41'0 0.0
2018-Apr-16 17:28N 37°56' E 023°41'0 0.0
2018-Apr-16 16:58N 37°56' E 023°41'0 0.0
2018-Apr-16 16:28N 37°56' E 023°41'0 0.0
2018-Apr-16 15:55N 37°56' E 023°41'0 0.0
2018-Apr-16 15:28N 37°56' E 023°41'0 0.0
2018-Apr-16 14:55N 37°56' E 023°41'0 0.0
2018-Apr-16 14:25N 37°56' E 023°41'0 0.0
2018-Apr-16 13:58N 37°56' E 023°41'0 0.0
2018-Apr-16 13:28N 37°56' E 023°41'0 0.0
2018-Apr-16 12:58N 37°56' E 023°41'0 0.0
2018-Apr-16 12:22N 37°56' E 023°41'0 0.0
2018-Apr-16 11:58N 37°56' E 023°41'0 0.0
2018-Apr-16 11:28N 37°56' E 023°41'0 0.0
2018-Apr-16 10:58N 37°56' E 023°41'0 0.0
2018-Apr-16 10:28N 37°56' E 023°41'0 0.0
2018-Apr-16 09:58N 37°56' E 023°41'0 0.0
2018-Apr-16 09:28N 37°56' E 023°41'0 0.0
2018-Apr-16 08:55N 37°56' E 023°41'0 0.0
2018-Apr-16 08:28N 37°56' E 023°41'0 0.0
2018-Apr-16 07:58N 37°56' E 023°41'0 0.0
2018-Apr-16 07:28N 37°56' E 023°41'0 0.0
2018-Apr-16 06:58N 37°56' E 023°41'0 0.0
2018-Apr-16 06:28N 37°56' E 023°41'0 0.0
2018-Apr-16 05:58N 37°56' E 023°41'0 0.0
2018-Apr-16 05:28N 37°56' E 023°41'0 0.0
2018-Apr-16 04:58N 37°56' E 023°41'0 0.0
2018-Apr-16 04:16N 37°56' E 023°41'0 0.0
2018-Apr-16 03:55N 37°56' E 023°41'0 0.0
2018-Apr-16 03:28N 37°56' E 023°41'0 0.0
2018-Apr-16 02:58N 37°56' E 023°41'0 0.0
2018-Apr-16 02:28N 37°56' E 023°41'0 0.0
2018-Apr-16 01:55N 37°56' E 023°41'0 0.0
2018-Apr-16 01:25N 37°56' E 023°41'0 0.0
2018-Apr-16 00:58N 37°56' E 023°41'0 0.0
2018-Apr-16 00:28N 37°56' E 023°41'0 0.0
2018-Apr-15 23:58N 37°56' E 023°41'0 0.0
2018-Apr-15 23:25N 37°56' E 023°41'0 0.0
2018-Apr-15 22:55N 37°56' E 023°41'0 0.0
2018-Apr-15 22:28N 37°56' E 023°41'0 0.0
2018-Apr-15 21:58N 37°56' E 023°41'0 0.0
2018-Apr-15 21:28N 37°56' E 023°41'0 0.0
2018-Apr-15 20:55N 37°56' E 023°41'0 0.0
2018-Apr-15 20:22N 37°56' E 023°41'0 0.0
2018-Apr-15 19:55N 37°56' E 023°41'0 0.0
2018-Apr-15 19:25N 37°56' E 023°41'0 0.0
2018-Apr-15 18:58N 37°56' E 023°41'0 0.0
2018-Apr-15 18:19N 37°56' E 023°41'0 0.0
2018-Apr-15 17:55N 37°56' E 023°41'0 0.0
2018-Apr-15 17:28N 37°56' E 023°41'0 0.0
2018-Apr-15 16:52N 37°56' E 023°41'0 0.0
2018-Apr-15 16:28N 37°56' E 023°41'0 0.0
2018-Apr-15 15:58N 37°56' E 023°41'0 0.0
2018-Apr-15 15:25N 37°56' E 023°41'0 0.0
2018-Apr-15 14:52N 37°56' E 023°41'0 0.0
2018-Apr-15 14:28N 37°56' E 023°41'0 0.0
2018-Apr-15 13:55N 37°56' E 023°41'0 0.0
2018-Apr-15 13:28N 37°56' E 023°41'0 0.0
2018-Apr-15 12:58N 37°56' E 023°41'0 0.0
2018-Apr-15 12:16N 37°56' E 023°41'0 0.0
2018-Apr-15 11:55N 37°56' E 023°41'0 0.0
2018-Apr-15 08:49N 37°56' E 023°41'0 0.0
2018-Apr-15 08:07N 37°56' E 023°41'0 0.0
2018-Apr-15 07:58N 37°56' E 023°41'0 0.0
2018-Apr-15 07:19N 37°56' E 023°41'0 0.0
2018-Apr-15 06:58N 37°56' E 023°41'0 0.0
2018-Apr-15 06:28N 37°56' E 023°41'0 0.0
2018-Apr-15 05:52N 37°56' E 023°41'0 0.0
2018-Apr-15 05:25N 37°56' E 023°41'0 0.0
2018-Apr-15 04:58N 37°56' E 023°41'0 0.0
2018-Apr-15 04:28N 37°56' E 023°41'0 0.0
2018-Apr-15 03:55N 37°56' E 023°41'0 0.0
2018-Apr-15 03:25N 37°56' E 023°41'0 0.0
2018-Apr-15 02:55N 37°56' E 023°41'0 0.0
2018-Apr-15 02:28N 37°56' E 023°41'0 0.0
2018-Apr-15 01:58N 37°56' E 023°41'0 0.0
2018-Apr-15 01:28N 37°56' E 023°41'0 0.0
2018-Apr-15 00:55N 37°56' E 023°41'0 0.0
2018-Apr-15 00:28N 37°56' E 023°41'0 0.0
2018-Apr-14 23:58N 37°56' E 023°41'0 0.0
2018-Apr-14 23:28N 37°56' E 023°41'0 0.0
2018-Apr-14 22:58N 37°56' E 023°41'0 0.0
2018-Apr-14 22:28N 37°56' E 023°41'0 0.0
2018-Apr-14 21:58N 37°56' E 023°41'0 0.0
2018-Apr-14 21:28N 37°56' E 023°41'0 0.0
2018-Apr-14 20:55N 37°56' E 023°41'0 0.0
2018-Apr-14 20:28N 37°56' E 023°41'0 0.0
2018-Apr-14 19:58N 37°56' E 023°41'0 0.0
2018-Apr-14 19:28N 37°56' E 023°41'0 0.0
2018-Apr-14 18:58N 37°56' E 023°41'0 0.0
2018-Apr-14 18:28N 37°56' E 023°41'0 0.0
2018-Apr-14 17:58N 37°56' E 023°41'0 0.0
2018-Apr-14 17:28N 37°56' E 023°41'0 0.0
2018-Apr-14 16:55N 37°56' E 023°41'0 0.0
2018-Apr-14 16:25N 37°56' E 023°41'0 0.0
2018-Apr-14 15:58N 37°56' E 023°41'0 0.0
2018-Apr-14 15:25N 37°56' E 023°41'0 0.0
2018-Apr-14 14:58N 37°56' E 023°41'0 0.0
2018-Apr-14 14:28N 37°56' E 023°41'0 0.0
2018-Apr-14 13:55N 37°56' E 023°41'0 0.0
2018-Apr-14 13:28N 37°56' E 023°41'0 0.0
2018-Apr-14 12:56N 37°56' E 023°41'0 1.1
2018-Apr-14 12:31N 37°56' E 023°41'0 0.8
2018-Apr-14 11:56N 37°56' E 023°40'0 0.0
2018-Apr-14 11:29N 37°56' E 023°40'0 0.0
2018-Apr-14 10:59N 37°56' E 023°40'0 0.0
2018-Apr-14 10:29N 37°56' E 023°40'0 0.0
2018-Apr-14 09:59N 37°56' E 023°40'0 0.0
2018-Apr-14 09:26N 37°56' E 023°40'0 0.0
2018-Apr-14 08:56N 37°56' E 023°40'0 0.0
2018-Apr-14 08:26N 37°56' E 023°40'0 0.0
2018-Apr-14 07:59N 37°56' E 023°40'0 0.0
2018-Apr-14 07:23N 37°56' E 023°40'0 0.0
2018-Apr-14 06:59N 37°56' E 023°40'0 0.0
2018-Apr-14 06:29N 37°56' E 023°40'0 0.0
2018-Apr-14 05:59N 37°56' E 023°40'0 0.0
2018-Apr-14 05:29N 37°56' E 023°40'0 0.0
2018-Apr-14 04:56N 37°56' E 023°40'0 0.0
2018-Apr-14 04:29N 37°56' E 023°40'0 0.0
2018-Apr-14 03:59N 37°56' E 023°40'0 0.0
2018-Apr-14 03:29N 37°56' E 023°40'0 0.0
2018-Apr-14 02:56N 37°56' E 023°40'0 0.0
2018-Apr-14 02:29N 37°56' E 023°40'0 0.0
2018-Apr-14 01:59N 37°56' E 023°40'0 0.0
2018-Apr-14 01:23N 37°56' E 023°40'0 0.0
2018-Apr-14 00:59N 37°56' E 023°40'0 0.0
2018-Apr-14 00:29N 37°56' E 023°40'0 0.0
2018-Apr-13 23:59N 37°56' E 023°40'0 0.0
2018-Apr-13 23:26N 37°56' E 023°40'0 0.0
2018-Apr-13 22:59N 37°56' E 023°40'0 0.0
2018-Apr-13 22:29N 37°56' E 023°40'0 0.0
2018-Apr-13 21:59N 37°56' E 023°40'0 0.0
2018-Apr-13 21:29N 37°56' E 023°40'0 0.0
2018-Apr-13 20:59N 37°56' E 023°40'0 0.0
2018-Apr-13 20:29N 37°56' E 023°40'0 0.0
2018-Apr-13 19:59N 37°56' E 023°40'0 0.0
2018-Apr-13 19:29N 37°56' E 023°40'0 0.0
2018-Apr-13 18:53N 37°56' E 023°40'0 0.0
2018-Apr-13 18:29N 37°56' E 023°40'0 0.0
2018-Apr-13 17:59N 37°56' E 023°40'0 0.0
2018-Apr-13 17:29N 37°56' E 023°40'0 0.0
2018-Apr-13 16:59N 37°56' E 023°40'0 0.0
2018-Apr-13 16:26N 37°56' E 023°40'0 0.0
2018-Apr-13 15:59N 37°56' E 023°40'0 0.0
2018-Apr-13 15:29N 37°56' E 023°40'0 0.0
2018-Apr-13 14:59N 37°56' E 023°40'0 0.0
2018-Apr-13 14:29N 37°56' E 023°40'0 0.0
2018-Apr-13 13:59N 37°56' E 023°40'0 0.0
2018-Apr-13 13:29N 37°56' E 023°40'0 0.0
2018-Apr-13 12:59N 37°56' E 023°40'0 0.0
2018-Apr-13 12:29N 37°56' E 023°40'0 0.0
2018-Apr-13 11:56N 37°56' E 023°40'0 0.0
2018-Apr-13 11:26N 37°56' E 023°40'0 0.0
2018-Apr-13 10:59N 37°56' E 023°40'0 0.0
2018-Apr-13 10:29N 37°56' E 023°40'0 0.0
2018-Apr-13 09:59N 37°56' E 023°40'0 0.0
2018-Apr-13 09:29N 37°56' E 023°40'0 0.0
2018-Apr-13 08:59N 37°56' E 023°40'0 0.0
2018-Apr-13 08:29N 37°56' E 023°40'0 0.0
2018-Apr-13 07:56N 37°56' E 023°40'0 0.0
2018-Apr-13 07:29N 37°56' E 023°40'0 0.0
2018-Apr-13 06:59N 37°56' E 023°40'0 0.0
2018-Apr-13 06:29N 37°56' E 023°40'0 0.0
2018-Apr-13 05:59N 37°56' E 023°40'0 0.0
2018-Apr-13 05:29N 37°56' E 023°40'0 0.0
2018-Apr-13 04:56N 37°56' E 023°40'0 0.0
2018-Apr-13 04:29N 37°56' E 023°40'0 0.0
2018-Apr-13 03:59N 37°56' E 023°40'0 0.0
2018-Apr-13 03:26N 37°56' E 023°40'0 0.0
2018-Apr-13 02:59N 37°56' E 023°40'0 0.0
2018-Apr-13 02:29N 37°56' E 023°40'0 0.0
2018-Apr-13 01:59N 37°56' E 023°40'0 0.0
2018-Apr-13 01:29N 37°56' E 023°40'0 0.0
2018-Apr-13 00:59N 37°56' E 023°40'0 0.0
2018-Apr-13 00:29N 37°56' E 023°40'0 0.0
2018-Apr-12 23:59N 37°56' E 023°40'0 0.0
2018-Apr-12 23:29N 37°56' E 023°40'0 0.0
2018-Apr-12 22:59N 37°56' E 023°40'0 0.0
2018-Apr-12 22:26N 37°56' E 023°40'0 0.0
2018-Apr-12 21:59N 37°56' E 023°40'0 0.0
2018-Apr-12 21:29N 37°56' E 023°40'0 0.0
2018-Apr-12 20:59N 37°56' E 023°40'0 0.0
2018-Apr-12 20:29N 37°56' E 023°40'0 0.0
2018-Apr-12 19:59N 37°56' E 023°40'0 0.0
2018-Apr-12 19:29N 37°56' E 023°40'0 0.0
2018-Apr-12 18:59N 37°56' E 023°40'0 0.0
2018-Apr-12 18:29N 37°56' E 023°40'0 0.0
2018-Apr-12 17:59N 37°56' E 023°40'0 0.0
2018-Apr-12 17:29N 37°56' E 023°40'0 0.0
2018-Apr-12 16:59N 37°56' E 023°40'0 0.0
2018-Apr-12 16:29N 37°56' E 023°40'0 0.0
2018-Apr-12 15:59N 37°56' E 023°40'0 0.0
2018-Apr-12 15:26N 37°56' E 023°40'0 0.0
2018-Apr-12 14:59N 37°56' E 023°40'0 0.0
2018-Apr-12 14:29N 37°56' E 023°40'0 0.0
2018-Apr-12 13:59N 37°56' E 023°40'0 0.0
2018-Apr-12 13:29N 37°56' E 023°40'0 0.0
2018-Apr-12 12:59N 37°56' E 023°40'0 0.0
2018-Apr-12 12:26N 37°56' E 023°40'0 0.0
2018-Apr-12 11:59N 37°56' E 023°40'0 0.0
2018-Apr-12 11:29N 37°56' E 023°40'0 0.0
2018-Apr-12 10:56N 37°56' E 023°40'0 0.0
2018-Apr-12 10:29N 37°56' E 023°40'0 0.0
2018-Apr-12 09:56N 37°56' E 023°40'0 0.0
2018-Apr-12 09:29N 37°56' E 023°40'0 0.0
2018-Apr-12 08:59N 37°56' E 023°40'0 0.0
2018-Apr-12 08:29N 37°56' E 023°40'0 0.0
2018-Apr-12 07:59N 37°56' E 023°40'0 0.0
2018-Apr-12 07:20N 37°56' E 023°40'0 0.0
2018-Apr-12 06:56N 37°56' E 023°40'0 0.0
2018-Apr-12 06:29N 37°56' E 023°40'0 0.0
2018-Apr-12 05:59N 37°56' E 023°40'0 0.0
2018-Apr-12 05:29N 37°56' E 023°40'0 0.0
2018-Apr-12 04:59N 37°56' E 023°40'0 0.0
2018-Apr-12 04:26N 37°56' E 023°40'0 0.0
2018-Apr-12 03:59N 37°56' E 023°40'0 0.0
2018-Apr-12 03:29N 37°56' E 023°40'0 0.0
2018-Apr-12 02:59N 37°56' E 023°40'0 0.0
2018-Apr-12 02:26N 37°56' E 023°40'0 0.0
2018-Apr-12 01:56N 37°56' E 023°40'0 0.0
2018-Apr-12 01:29N 37°56' E 023°40'0 0.0
2018-Apr-12 00:59N 37°56' E 023°40'0 0.0
2018-Apr-12 00:29N 37°56' E 023°40'0 0.0
2018-Apr-11 23:56N 37°56' E 023°40'0 0.0
2018-Apr-11 23:29N 37°56' E 023°40'0 0.0
2018-Apr-11 22:53N 37°56' E 023°40'0 0.0
2018-Apr-11 22:26N 37°56' E 023°40'0 0.0
2018-Apr-11 21:50N 37°56' E 023°40'0 0.0
2018-Apr-11 21:26N 37°56' E 023°40'0 0.0
2018-Apr-11 20:59N 37°56' E 023°40'0 0.0
2018-Apr-11 20:29N 37°56' E 023°40'0 0.0
2018-Apr-11 19:59N 37°56' E 023°40'0 0.0
2018-Apr-11 19:29N 37°56' E 023°40'0 0.0
2018-Apr-11 18:59N 37°56' E 023°40'0 0.0
2018-Apr-11 18:29N 37°56' E 023°40'0 0.0
2018-Apr-11 17:59N 37°56' E 023°40'0 0.0
2018-Apr-11 17:26N 37°56' E 023°40'0 0.0
2018-Apr-11 16:59N 37°56' E 023°40'0 0.0
2018-Apr-11 16:29N 37°56' E 023°40'0 0.0
2018-Apr-11 15:59N 37°56' E 023°40'0 0.0
2018-Apr-11 15:29N 37°56' E 023°40'0 0.0
2018-Apr-11 14:56N 37°56' E 023°40'0 0.0
2018-Apr-11 14:29N 37°56' E 023°40'0 0.0
2018-Apr-11 13:59N 37°56' E 023°40'0 0.0
2018-Apr-11 13:29N 37°56' E 023°40'0 0.0
2018-Apr-11 12:59N 37°56' E 023°40'0 0.0
2018-Apr-11 12:29N 37°56' E 023°40'0 0.0
2018-Apr-11 11:59N 37°56' E 023°40'0 0.0
2018-Apr-11 11:29N 37°56' E 023°40'0 0.0
2018-Apr-11 10:59N 37°56' E 023°40'0 0.0
2018-Apr-11 10:29N 37°56' E 023°40'0 0.0
2018-Apr-11 09:59N 37°56' E 023°40'0 0.0
2018-Apr-11 09:29N 37°56' E 023°40'0 0.0
2018-Apr-11 08:59N 37°56' E 023°40'0 0.0
2018-Apr-11 08:29N 37°56' E 023°40'0 0.0
2018-Apr-11 07:59N 37°56' E 023°40'0 0.0
2018-Apr-11 07:29N 37°56' E 023°40'0 0.0
2018-Apr-11 06:59N 37°56' E 023°40'0 0.0
2018-Apr-11 06:26N 37°56' E 023°40'0 0.0
2018-Apr-11 05:56N 37°56' E 023°40'0 0.0
2018-Apr-11 05:29N 37°56' E 023°40'0 0.0
2018-Apr-11 04:59N 37°56' E 023°40'0 0.0
2018-Apr-11 04:29N 37°56' E 023°40'0 0.0
2018-Apr-11 03:59N 37°56' E 023°40'0 0.0
2018-Apr-11 03:29N 37°56' E 023°40'0 0.0
2018-Apr-11 02:59N 37°56' E 023°40'0 0.0
2018-Apr-11 02:29N 37°56' E 023°40'0 0.0
2018-Apr-11 01:59N 37°56' E 023°40'0 0.0
2018-Apr-11 01:26N 37°56' E 023°40'0 0.0
2018-Apr-11 00:59N 37°56' E 023°40'0 0.0
2018-Apr-11 00:29N 37°56' E 023°40'0 0.0
2018-Apr-10 23:59N 37°56' E 023°40'0 0.0
2018-Apr-10 23:29N 37°56' E 023°40'0 0.0
2018-Apr-10 22:59N 37°56' E 023°40'0 0.0
2018-Apr-10 22:29N 37°56' E 023°40'0 0.0
2018-Apr-10 21:59N 37°56' E 023°40'0 0.0
2018-Apr-10 21:26N 37°56' E 023°40'0 0.0
2018-Apr-10 20:59N 37°56' E 023°40'0 0.0
2018-Apr-10 20:23N 37°56' E 023°40'0 0.0
2018-Apr-10 19:59N 37°56' E 023°40'0 0.0
2018-Apr-10 19:29N 37°56' E 023°40'0 0.0
2018-Apr-10 18:59N 37°56' E 023°40'0 0.0
2018-Apr-10 18:29N 37°56' E 023°40'0 0.0
2018-Apr-10 17:59N 37°56' E 023°40'0 0.0
2018-Apr-10 17:29N 37°56' E 023°40'0 0.0
2018-Apr-10 16:59N 37°56' E 023°40'0 0.0
2018-Apr-10 16:29N 37°56' E 023°40'0 0.0
2018-Apr-10 15:59N 37°56' E 023°40'0 0.0
2018-Apr-10 15:29N 37°56' E 023°40'0 0.0
2018-Apr-10 14:53N 37°56' E 023°40'0 0.0
2018-Apr-10 14:29N 37°56' E 023°40'0 0.0
2018-Apr-10 13:59N 37°56' E 023°40'0 0.0
2018-Apr-10 13:29N 37°56' E 023°40'0 0.0
2018-Apr-10 12:59N 37°56' E 023°40'0 0.0
2018-Apr-10 12:29N 37°56' E 023°40'0 0.0
2018-Apr-10 11:59N 37°56' E 023°40'0 0.0
2018-Apr-10 11:29N 37°56' E 023°40'0 0.0
2018-Apr-10 10:59N 37°56' E 023°40'0 0.0
2018-Apr-10 10:29N 37°56' E 023°40'0 0.0
2018-Apr-10 09:59N 37°56' E 023°40'0 0.0
2018-Apr-10 09:29N 37°56' E 023°40'0 0.0
2018-Apr-10 08:59N 37°56' E 023°40'0 0.0
2018-Apr-10 08:26N 37°56' E 023°40'0 0.0
2018-Apr-10 07:59N 37°56' E 023°40'0 0.0
2018-Apr-10 07:29N 37°56' E 023°40'0 0.0
2018-Apr-10 06:59N 37°56' E 023°40'0 0.0
2018-Apr-10 06:29N 37°56' E 023°40'0 0.0
2018-Apr-10 05:59N 37°56' E 023°40'0 0.0
2018-Apr-10 05:29N 37°56' E 023°40'0 0.0
2018-Apr-10 04:59N 37°56' E 023°40'0 0.0
2018-Apr-10 04:29N 37°56' E 023°40'0 0.0
2018-Apr-10 03:59N 37°56' E 023°40'0 0.0
2018-Apr-10 03:26N 37°56' E 023°40'0 0.0
2018-Apr-10 02:59N 37°56' E 023°40'0 0.0
2018-Apr-10 02:29N 37°56' E 023°40'0 0.0
2018-Apr-10 01:59N 37°56' E 023°40'0 0.0
2018-Apr-10 01:29N 37°56' E 023°40'0 0.0
2018-Apr-10 00:59N 37°56' E 023°40'0 0.0
2018-Apr-10 00:29N 37°56' E 023°40'0 0.0
2018-Apr-09 23:59N 37°56' E 023°40'0 0.0
2018-Apr-09 23:29N 37°56' E 023°40'0 0.0
2018-Apr-09 22:59N 37°56' E 023°40'0 0.0
2018-Apr-09 22:29N 37°56' E 023°40'0 0.0
2018-Apr-09 21:56N 37°56' E 023°40'0 0.0
2018-Apr-09 21:29N 37°56' E 023°40'0 0.0
2018-Apr-09 20:59N 37°56' E 023°40'0 0.0
2018-Apr-09 20:29N 37°56' E 023°40'0 0.0
2018-Apr-09 19:59N 37°56' E 023°40'0 0.0
2018-Apr-09 19:29N 37°56' E 023°40'0 0.0
2018-Apr-09 18:59N 37°56' E 023°40'0 0.0
2018-Apr-09 18:29N 37°56' E 023°40'0 0.0
2018-Apr-09 17:59N 37°56' E 023°40'0 0.0
2018-Apr-09 17:29N 37°56' E 023°40'0 0.0
2018-Apr-09 16:56N 37°56' E 023°40'0 0.0
2018-Apr-09 16:29N 37°56' E 023°40'0 0.0
2018-Apr-09 15:59N 37°56' E 023°40'0 0.0
2018-Apr-09 15:29N 37°56' E 023°40'0 0.0
2018-Apr-09 14:59N 37°56' E 023°40'0 0.0
2018-Apr-09 14:29N 37°56' E 023°40'0 0.0
2018-Apr-09 13:59N 37°56' E 023°40'0 0.0
2018-Apr-09 13:29N 37°56' E 023°40'0 0.0
2018-Apr-09 12:59N 37°56' E 023°40'0 0.0
2018-Apr-09 12:29N 37°56' E 023°40'0 0.0
2018-Apr-09 11:59N 37°56' E 023°40'0 0.0
2018-Apr-09 11:29N 37°56' E 023°40'0 0.0
2018-Apr-09 10:59N 37°56' E 023°40'0 0.0
2018-Apr-09 10:29N 37°56' E 023°40'0 0.0
2018-Apr-09 09:59N 37°56' E 023°40'0 0.0
2018-Apr-09 09:29N 37°56' E 023°40'0 0.0
2018-Apr-09 08:59N 37°56' E 023°40'0 0.0
2018-Apr-09 08:29N 37°56' E 023°40'0 0.0
2018-Apr-09 07:59N 37°56' E 023°40'0 0.0
2018-Apr-09 07:29N 37°56' E 023°40'0 0.0
2018-Apr-09 06:59N 37°56' E 023°40'0 0.0
2018-Apr-09 06:26N 37°56' E 023°40'0 0.0
2018-Apr-09 05:59N 37°56' E 023°40'0 0.0
2018-Apr-09 05:29N 37°56' E 023°40'0 0.0
2018-Apr-09 04:59N 37°56' E 023°40'0 0.0
2018-Apr-09 04:29N 37°56' E 023°40'0 0.0
2018-Apr-09 03:59N 37°56' E 023°40'0 0.0
2018-Apr-09 03:26N 37°56' E 023°40'0 0.0
2018-Apr-09 02:59N 37°56' E 023°40'0 0.0
2018-Apr-09 02:29N 37°56' E 023°40'0 0.0
2018-Apr-09 01:59N 37°56' E 023°40'0 0.0
2018-Apr-09 01:29N 37°56' E 023°40'0 0.0
2018-Apr-09 00:59N 37°56' E 023°40'0 0.0
2018-Apr-09 00:29N 37°56' E 023°40'0 0.0
2018-Apr-08 23:59N 37°56' E 023°40'0 0.0
2018-Apr-08 23:29N 37°56' E 023°40'0 0.0
2018-Apr-08 22:56N 37°56' E 023°40'0 0.0
2018-Apr-08 22:29N 37°56' E 023°40'0 0.0
2018-Apr-08 21:59N 37°56' E 023°40'0 0.0
2018-Apr-08 21:29N 37°56' E 023°40'0 0.0
2018-Apr-08 20:59N 37°56' E 023°40'0 0.0
2018-Apr-08 20:29N 37°56' E 023°40'0 0.0
2018-Apr-08 19:59N 37°56' E 023°40'0 0.0
2018-Apr-08 19:29N 37°56' E 023°40'0 0.0
2018-Apr-08 18:59N 37°56' E 023°40'0 0.0
2018-Apr-08 18:29N 37°56' E 023°40'0 0.0
2018-Apr-08 17:59N 37°56' E 023°40'0 0.0
2018-Apr-08 17:29N 37°56' E 023°40'0 0.0
2018-Apr-08 16:59N 37°56' E 023°40'0 0.0
2018-Apr-08 16:29N 37°56' E 023°40'0 0.0
2018-Apr-08 15:59N 37°56' E 023°40'0 0.0
2018-Apr-08 15:29N 37°56' E 023°40'0 0.0
2018-Apr-08 14:59N 37°56' E 023°40'0 0.0
2018-Apr-08 14:29N 37°56' E 023°40'0 0.0
2018-Apr-08 13:59N 37°56' E 023°40'0 0.0
2018-Apr-08 13:29N 37°56' E 023°40'0 0.0
2018-Apr-08 12:59N 37°56' E 023°40'0 0.0
2018-Apr-08 12:29N 37°56' E 023°40'0 0.0
2018-Apr-08 11:59N 37°56' E 023°40'0 0.0
2018-Apr-08 11:29N 37°56' E 023°40'0 0.0
2018-Apr-08 10:59N 37°56' E 023°40'0 0.0
2018-Apr-08 10:29N 37°56' E 023°40'0 0.0
2018-Apr-08 09:59N 37°56' E 023°40'0 0.0
2018-Apr-08 09:29N 37°56' E 023°40'0 0.0
2018-Apr-08 08:59N 37°56' E 023°40'0 0.0
2018-Apr-08 08:29N 37°56' E 023°40'0 0.0
2018-Apr-08 07:59N 37°56' E 023°40'0 0.0
2018-Apr-08 07:29N 37°56' E 023°40'0 0.0
2018-Apr-08 06:59N 37°56' E 023°40'0 0.0
2018-Apr-08 06:29N 37°56' E 023°40'0 0.0
2018-Apr-08 05:59N 37°56' E 023°40'0 0.0
2018-Apr-08 05:29N 37°56' E 023°40'0 0.0
2018-Apr-08 04:59N 37°56' E 023°40'0 0.0
2018-Apr-08 04:29N 37°56' E 023°40'0 0.0
2018-Apr-08 03:59N 37°56' E 023°40'0 0.0
2018-Apr-08 03:29N 37°56' E 023°40'0 0.0
2018-Apr-08 02:59N 37°56' E 023°40'0 0.0
2018-Apr-08 02:29N 37°56' E 023°40'0 0.0
2018-Apr-08 01:59N 37°56' E 023°40'0 0.0
2018-Apr-08 01:26N 37°56' E 023°40'0 0.0
2018-Apr-08 00:59N 37°56' E 023°40'0 0.0
2018-Apr-08 00:29N 37°56' E 023°40'0 0.0
2018-Apr-07 23:59N 37°56' E 023°40'0 0.0
2018-Apr-07 23:29N 37°56' E 023°40'0 0.0
2018-Apr-07 22:59N 37°56' E 023°40'0 0.0
2018-Apr-07 22:29N 37°56' E 023°40'0 0.0
2018-Apr-07 21:59N 37°56' E 023°40'0 0.0
2018-Apr-07 21:29N 37°56' E 023°40'0 0.0
2018-Apr-07 20:59N 37°56' E 023°40'0 0.0
2018-Apr-07 20:29N 37°56' E 023°40'0 0.0
2018-Apr-07 19:59N 37°56' E 023°40'0 0.0
2018-Apr-07 19:29N 37°56' E 023°40'0 0.0
2018-Apr-07 18:56N 37°56' E 023°40'  

Dump ship's entire track history